createdAt,value
2019-06-08T00:00:51.736Z,8.15
2019-06-08T00:03:23.799Z,5.40
2019-06-08T00:05:53.262Z,6.58
2019-06-08T00:08:23.049Z,4.20
2019-06-08T00:10:52.493Z,6.00
2019-06-08T00:13:23.221Z,5.60
2019-06-08T00:15:52.785Z,6.03
2019-06-08T00:18:23.398Z,7.55
2019-06-08T00:20:54.907Z,3.20
2019-06-08T00:23:24.343Z,11.48
2019-06-08T00:25:53.799Z,4.17
2019-06-08T00:28:24.712Z,4.47
2019-06-08T00:30:54.324Z,3.17
2019-06-08T00:33:24.830Z,5.78
2019-06-08T00:35:54.671Z,6.35
2019-06-08T00:38:25.128Z,4.12
2019-06-08T00:40:54.674Z,7.35
2019-06-08T00:43:29.021Z,4.92
2019-06-08T00:46:03.292Z,7.08
2019-06-08T00:48:40.633Z,5.83
2019-06-08T00:54:17.412Z,5.00
2019-06-08T00:56:48.573Z,6.15
2019-06-08T00:59:18.053Z,16.30
2019-06-08T01:01:47.521Z,5.45
2019-06-08T01:04:16.958Z,9.03
2019-06-08T01:06:46.549Z,7.67
2019-06-08T01:09:15.986Z,8.53
2019-06-08T01:11:45.528Z,5.55
2019-06-08T01:14:15.044Z,9.15
2019-06-08T01:16:44.509Z,4.90
2019-06-08T01:19:13.980Z,7.42
2019-06-08T01:21:43.454Z,6.53
2019-06-08T01:24:12.993Z,4.67
2019-06-08T01:26:42.527Z,3.92
2019-06-08T01:29:12.103Z,4.53
2019-06-08T01:31:41.553Z,5.30
2019-06-08T01:34:12.602Z,11.10
2019-06-08T01:36:42.101Z,4.95
2019-06-08T01:39:11.550Z,4.47
2019-06-08T01:41:41.022Z,6.95
2019-06-08T01:44:19.418Z,7.97
2019-06-08T01:46:49.333Z,7.62
2019-06-08T01:49:18.991Z,5.85
2019-06-08T01:51:48.554Z,7.22
2019-06-08T01:54:18.022Z,10.63
2019-06-08T01:56:49.114Z,5.62
2019-06-08T01:59:18.661Z,11.30
2019-06-08T02:01:48.155Z,6.62
2019-06-08T02:04:19.983Z,5.05
2019-06-08T02:06:49.438Z,6.67
2019-06-08T02:09:18.902Z,7.22
2019-06-08T02:11:48.353Z,5.87
2019-06-08T02:14:17.819Z,6.35
2019-06-08T02:16:47.313Z,7.65
2019-06-08T02:19:16.757Z,5.58
2019-06-08T02:21:46.233Z,7.85
2019-06-08T02:24:15.705Z,4.12
2019-06-08T02:26:45.177Z,7.28
2019-06-08T02:29:16.783Z,7.05
2019-06-08T02:31:48.189Z,3.42
2019-06-08T02:34:17.397Z,4.95
2019-06-08T02:36:46.867Z,5.00
2019-06-08T02:39:16.304Z,15.18
2019-06-08T02:41:47.515Z,5.45
2019-06-08T02:44:18.942Z,4.50
2019-06-08T02:46:48.097Z,3.72
2019-06-08T02:49:17.530Z,5.75
2019-06-08T02:51:49.266Z,3.92
2019-06-08T02:54:19.086Z,3.05
2019-06-08T02:56:50.265Z,3.87
2019-06-08T02:59:22.952Z,10.58
2019-06-08T03:01:54.611Z,8.18
2019-06-08T03:04:29.838Z,10.65
2019-06-08T03:07:03.699Z,3.58
2019-06-08T03:09:34.831Z,4.47
2019-06-08T03:12:06.258Z,7.08
2019-06-08T03:14:37.510Z,8.23
2019-06-08T03:17:07.042Z,8.95
2019-06-08T03:19:37.529Z,10.70
2019-06-08T03:22:10.673Z,3.90
2019-06-08T03:24:38.765Z,3.65
2019-06-08T03:27:08.354Z,5.65
2019-06-08T03:29:39.116Z,8.28
2019-06-08T03:32:09.173Z,7.40
2019-06-08T03:34:46.062Z,4.67
2019-06-08T03:37:09.786Z,3.87
2019-06-08T03:39:41.187Z,5.37
2019-06-08T03:42:10.435Z,5.42
2019-06-08T03:44:40.451Z,3.30
2019-06-08T03:47:13.745Z,4.10
2019-06-08T03:49:54.781Z,4.42
2019-06-08T03:52:14.832Z,4.60
2019-06-08T03:54:45.223Z,3.08
2019-06-08T03:57:15.515Z,5.65
2019-06-08T03:59:46.165Z,4.50
2019-06-08T04:02:16.185Z,6.00
2019-06-08T04:04:46.327Z,5.55
2019-06-08T04:07:15.981Z,3.30
2019-06-08T04:10:01.449Z,3.50
2019-06-08T04:12:30.897Z,5.95
2019-06-08T04:15:00.400Z,4.58
2019-06-08T04:17:29.887Z,4.75
2019-06-08T04:20:10.422Z,6.22
2019-06-08T04:22:30.587Z,5.95
2019-06-08T04:25:07.144Z,5.83
2019-06-08T04:27:42.359Z,3.98
2019-06-08T04:30:17.387Z,3.98
2019-06-08T04:32:49.826Z,3.72
2019-06-08T04:35:19.333Z,7.08
2019-06-08T04:37:50.357Z,7.83
2019-06-08T04:40:20.134Z,6.25
2019-06-08T04:42:51.091Z,6.70
2019-06-08T04:45:21.807Z,6.00
2019-06-08T04:47:51.289Z,3.55
2019-06-08T04:50:23.781Z,5.25
2019-06-08T04:52:51.998Z,3.47
2019-06-08T04:55:32.822Z,3.75
2019-06-08T05:00:48.097Z,3.72
2019-06-08T05:06:33.613Z,4.97
2019-06-08T05:13:20.667Z,8.83
2019-06-08T05:15:50.432Z,5.75
2019-06-08T05:18:19.887Z,3.58
2019-06-08T05:20:51.487Z,3.25
2019-06-08T05:32:58.022Z,8.78
2019-06-08T05:38:41.600Z,10.48
2019-06-08T05:41:26.981Z,7.08
2019-06-08T05:47:23.345Z,4.70
2019-06-08T05:50:18.851Z,10.08
2019-06-08T05:53:07.966Z,4.15
2019-06-08T05:56:27.654Z,5.33
2019-06-08T05:59:06.386Z,5.58
2019-06-08T06:01:35.862Z,14.43
2019-06-08T06:04:05.391Z,7.72
2019-06-08T06:06:34.845Z,5.55
2019-06-08T06:09:06.971Z,3.90
2019-06-08T06:11:36.432Z,7.33
2019-06-08T06:17:49.801Z,10.63
2019-06-08T06:20:31.818Z,5.42
2019-06-08T06:23:25.914Z,8.63
2019-06-08T06:25:55.404Z,6.72
2019-06-08T06:28:24.887Z,3.17
2019-06-08T06:30:54.381Z,6.78
2019-06-08T06:33:25.447Z,5.75
2019-06-08T06:35:54.922Z,3.80
2019-06-08T06:38:24.370Z,5.03
2019-06-08T06:40:53.851Z,6.25
2019-06-08T06:43:28.911Z,5.90
2019-06-08T06:46:21.161Z,5.03
2019-06-08T06:54:30.988Z,10.48
2019-06-08T06:57:00.462Z,12.43
2019-06-08T06:59:29.922Z,9.18
2019-06-08T07:01:59.413Z,9.23
2019-06-08T07:04:31.755Z,10.28
2019-06-08T07:13:16.773Z,9.03
2019-06-08T07:16:53.991Z,2.77
2019-06-08T07:23:06.472Z,5.92
2019-06-08T07:35:20.361Z,5.60
2019-06-08T07:37:50.589Z,6.25
2019-06-08T07:40:20.954Z,8.43
2019-06-08T07:42:53.028Z,6.75
2019-06-08T07:45:49.849Z,6.10
2019-06-08T07:48:37.370Z,5.20
2019-06-08T08:04:12.275Z,6.00
2019-06-08T08:06:41.785Z,6.78
2019-06-08T08:09:11.231Z,4.87
2019-06-08T08:11:40.661Z,6.00
2019-06-08T08:17:41.043Z,6.05
2019-06-08T08:20:13.980Z,9.53
2019-06-08T08:22:49.156Z,8.15
2019-06-08T08:25:20.105Z,5.53
2019-06-08T08:27:50.759Z,6.92
2019-06-08T08:30:22.357Z,3.92
2019-06-08T08:32:53.123Z,4.60
2019-06-08T08:35:27.934Z,10.23
2019-06-08T08:38:02.992Z,7.72
2019-06-08T08:41:00.209Z,6.67
2019-06-08T08:46:59.411Z,8.73
2019-06-08T08:49:28.254Z,14.40
2019-06-08T09:01:42.704Z,8.30
2019-06-08T09:04:12.442Z,6.35
2019-06-08T09:06:41.998Z,8.25
2019-06-08T09:09:18.833Z,8.63
2019-06-08T09:15:08.318Z,7.92
2019-06-08T09:17:38.800Z,7.00
2019-06-08T09:20:14.757Z,6.55
2019-06-08T09:22:52.319Z,10.00
2019-06-08T09:28:38.683Z,10.80
2019-06-08T09:31:12.844Z,13.72
2019-06-08T09:33:40.841Z,13.93
2019-06-08T10:11:09.830Z,14.60
2019-06-08T10:31:13.625Z,10.90
2019-06-08T10:36:52.256Z,14.68
2019-06-08T11:34:10.248Z,21.85
2019-06-08T11:36:42.192Z,26.52
2019-06-08T11:45:58.451Z,30.17
2019-06-08T11:48:28.604Z,21.15
2019-06-08T11:50:58.613Z,29.82
2019-06-08T11:53:32.948Z,29.25
2019-06-08T11:56:04.766Z,24.85
2019-06-08T11:58:38.161Z,25.88
2019-06-08T12:01:12.837Z,26.07
2019-06-08T12:03:40.427Z,20.15
2019-06-08T12:08:50.824Z,26.90
2019-06-08T12:11:23.042Z,28.77
2019-06-08T12:13:59.794Z,35.60
2019-06-08T12:16:29.269Z,28.42
2019-06-08T12:18:58.830Z,33.10
2019-06-08T12:21:28.308Z,29.48
2019-06-08T12:23:57.804Z,31.82
2019-06-08T12:26:28.912Z,30.65
2019-06-08T12:29:01.274Z,28.73
2019-06-08T12:31:32.779Z,30.45
2019-06-08T12:34:02.292Z,28.52
2019-06-08T12:36:31.798Z,24.05
2019-06-08T12:39:01.247Z,27.05
2019-06-08T12:41:31.530Z,28.35
2019-06-08T12:44:15.194Z,26.02
2019-06-08T12:46:42.358Z,26.90
2019-06-08T12:49:16.473Z,26.40
2019-06-08T12:51:50.842Z,24.95
2019-06-08T12:54:30.207Z,26.00
2019-06-08T12:57:04.329Z,25.00
2019-06-08T12:59:45.433Z,23.65
2019-06-08T13:02:24.295Z,28.38
2019-06-08T13:05:04.500Z,28.32
2019-06-08T13:07:38.410Z,25.48
2019-06-08T13:10:15.198Z,27.48
2019-06-08T13:12:47.985Z,23.45
2019-06-08T13:15:21.973Z,28.92
2019-06-08T13:17:51.644Z,26.05
2019-06-08T13:20:22.458Z,26.12
2019-06-08T13:22:52.022Z,28.50
2019-06-08T13:25:36.209Z,24.20
2019-06-08T13:27:54.301Z,20.92
2019-06-08T13:30:26.412Z,20.95
2019-06-08T13:32:57.859Z,26.77
2019-06-08T13:35:30.538Z,23.22
2019-06-08T13:37:58.658Z,21.37
2019-06-08T13:40:28.140Z,18.07
2019-06-08T13:42:58.221Z,23.12
2019-06-08T13:45:28.037Z,29.45
2019-06-08T13:47:58.711Z,22.60
2019-06-08T13:50:28.274Z,28.55
2019-06-08T13:52:58.778Z,22.15
2019-06-08T13:55:47.925Z,21.40
2019-06-08T13:57:59.765Z,24.43
2019-06-08T14:00:33.186Z,25.92
2019-06-08T14:03:03.082Z,22.02
2019-06-08T14:05:32.925Z,26.70
2019-06-08T14:08:02.762Z,18.35
2019-06-08T14:10:38.549Z,24.40
2019-06-08T14:13:27.028Z,20.72
2019-06-08T14:15:51.470Z,25.97
2019-06-08T14:18:33.886Z,20.72
2019-06-08T14:21:00.165Z,21.68
2019-06-08T14:23:29.978Z,18.70
2019-06-08T14:26:00.184Z,21.10
2019-06-08T14:28:30.333Z,21.93
2019-06-08T14:30:59.989Z,20.23
2019-06-08T14:33:33.346Z,19.45
2019-06-08T14:36:18.293Z,21.90
2019-06-08T14:38:49.482Z,20.62
2019-06-08T14:41:19.821Z,19.52
2019-06-08T14:43:50.809Z,18.75
2019-06-08T14:46:21.510Z,18.40
2019-06-08T14:48:51.495Z,20.48
2019-06-08T14:51:22.410Z,16.90
2019-06-08T14:53:51.927Z,22.70
2019-06-08T14:56:21.411Z,23.65
2019-06-08T14:58:57.643Z,23.98
2019-06-08T15:01:30.236Z,23.80
2019-06-08T15:03:59.867Z,19.52
2019-06-08T15:06:33.915Z,21.12
2019-06-08T15:09:02.050Z,21.82
2019-06-08T15:11:35.322Z,24.63
2019-06-08T15:14:05.566Z,23.95
2019-06-08T15:16:35.036Z,19.20
2019-06-08T15:19:04.579Z,20.12
2019-06-08T15:21:34.013Z,22.90
2019-06-08T15:24:03.585Z,23.62
2019-06-08T15:26:42.353Z,21.37
2019-06-08T15:29:04.793Z,20.17
2019-06-08T15:31:34.230Z,19.75
2019-06-08T15:34:10.739Z,19.00
2019-06-08T15:36:40.495Z,19.75
2019-06-08T15:39:09.952Z,23.45
2019-06-08T15:44:41.879Z,27.85
2019-06-08T15:47:18.767Z,19.55
2019-06-08T15:49:50.521Z,20.88
2019-06-08T15:52:24.424Z,18.95
2019-06-08T16:00:49.057Z,23.70
2019-06-08T16:09:02.267Z,24.27
2019-06-08T16:11:35.130Z,19.98
2019-06-08T16:36:54.757Z,23.00
2019-06-08T16:39:24.350Z,19.42
2019-06-08T16:41:53.872Z,23.42
2019-06-08T16:44:26.422Z,18.52
2019-06-08T16:46:59.168Z,20.72
2019-06-08T16:49:33.392Z,21.33
2019-06-08T16:52:08.615Z,24.23
2019-06-08T16:54:38.984Z,29.98
2019-06-08T16:57:10.791Z,21.57
2019-06-08T16:59:39.867Z,23.47
2019-06-08T17:02:10.263Z,30.00
2019-06-08T17:04:39.734Z,24.05
2019-06-08T17:07:09.192Z,27.02
2019-06-08T17:09:39.902Z,17.07
2019-06-08T17:12:12.051Z,24.67
2019-06-08T17:14:40.860Z,23.95
2019-06-08T17:17:10.337Z,24.63
2019-06-08T17:19:40.426Z,25.48
2019-06-08T17:22:09.942Z,23.10
2019-06-08T17:24:40.603Z,24.63
2019-06-08T17:27:25.801Z,27.27
2019-06-08T17:29:41.392Z,29.40
2019-06-08T17:32:10.872Z,24.15
2019-06-08T17:34:41.190Z,25.62
2019-06-08T17:37:11.711Z,26.35
2019-06-08T17:39:42.279Z,24.32
2019-06-08T17:42:12.204Z,22.62
2019-06-08T17:44:42.557Z,24.37
2019-06-08T17:47:12.201Z,25.68
2019-06-08T17:49:49.044Z,20.20
2019-06-08T17:52:21.458Z,25.97
2019-06-08T17:54:56.568Z,25.68
2019-06-08T17:57:43.516Z,27.32
2019-06-08T18:09:04.390Z,22.82
2019-06-08T18:11:41.939Z,22.42
2019-06-08T18:17:22.764Z,23.52
2019-06-08T18:19:57.831Z,21.55
2019-06-08T18:22:34.239Z,24.18
2019-06-08T18:26:43.031Z,21.57
2019-06-08T18:27:40.469Z,21.20
2019-06-08T18:30:11.769Z,20.15
2019-06-08T18:32:42.462Z,22.15
2019-06-08T18:35:12.233Z,19.12
2019-06-08T18:37:42.901Z,22.32
2019-06-08T18:40:17.920Z,23.95
2019-06-08T18:42:48.931Z,27.20
2019-06-08T18:45:21.569Z,23.62
2019-06-08T18:47:50.501Z,27.60
2019-06-08T18:50:20.038Z,28.83
2019-06-08T18:52:49.878Z,25.95
2019-06-08T18:55:21.350Z,22.77
2019-06-08T18:57:50.820Z,21.05
2019-06-08T19:00:23.616Z,25.48
2019-06-08T19:02:54.641Z,24.30
2019-06-08T19:05:24.270Z,25.10
2019-06-08T19:07:53.960Z,30.77
2019-06-08T19:10:29.901Z,21.90
2019-06-08T19:12:59.480Z,29.27
2019-06-08T19:15:32.882Z,27.95
2019-06-08T19:18:02.497Z,25.88
2019-06-08T19:20:31.986Z,31.12
2019-06-08T19:23:09.426Z,22.13
2019-06-08T19:26:32.524Z,25.65
2019-06-08T19:28:35.996Z,29.00
2019-06-08T19:30:58.923Z,29.92
2019-06-08T19:33:30.266Z,30.27
2019-06-08T19:38:54.214Z,28.20
2019-06-08T19:41:28.240Z,21.07
2019-06-08T19:43:59.557Z,26.33
2019-06-08T19:46:29.043Z,23.47
2019-06-08T19:48:59.159Z,24.57
2019-06-08T20:02:53.371Z,33.13
2019-06-08T20:05:28.512Z,32.67
2019-06-08T20:09:38.195Z,28.27
2019-06-08T20:11:08.219Z,28.45
2019-06-08T20:13:16.723Z,31.70
2019-06-08T20:18:48.637Z,24.92
2019-06-08T20:21:22.250Z,28.45
2019-06-08T20:23:51.693Z,22.13
2019-06-08T20:26:21.191Z,31.17
2019-06-08T20:28:52.943Z,31.05
2019-06-08T20:31:21.837Z,32.80
2019-06-08T20:33:52.169Z,26.48
2019-06-08T20:36:21.728Z,29.50
2019-06-08T20:38:51.444Z,30.05
2019-06-08T20:41:20.915Z,25.80
2019-06-08T20:43:52.049Z,24.90
2019-06-08T20:46:21.838Z,31.57
2019-06-08T20:48:51.976Z,24.15
2019-06-08T20:51:22.603Z,32.90
2019-06-08T20:53:52.499Z,30.25
2019-06-08T20:56:23.117Z,23.12
2019-06-08T20:58:53.951Z,32.75
2019-06-08T21:01:23.647Z,27.95
2019-06-08T21:03:54.251Z,27.35
2019-06-08T21:06:23.930Z,35.03
2019-06-08T21:08:54.739Z,30.88
2019-06-08T21:11:24.550Z,28.87
2019-06-08T21:13:55.334Z,30.52
2019-06-08T21:16:27.509Z,32.03
2019-06-08T21:18:57.981Z,26.17
2019-06-08T21:21:28.286Z,23.92
2019-06-08T21:24:00.958Z,28.98
2019-06-08T21:26:29.134Z,29.15
2019-06-08T21:29:00.393Z,21.85
2019-06-08T21:31:29.783Z,31.55
2019-06-08T21:34:00.789Z,31.23
2019-06-08T21:36:30.605Z,28.60
2019-06-08T21:39:02.496Z,26.37
2019-06-08T21:41:31.238Z,31.35
2019-06-08T21:44:02.073Z,27.55
2019-06-08T21:46:31.744Z,32.83
2019-06-08T21:49:01.222Z,35.68
2019-06-08T21:51:30.688Z,20.40
2019-06-08T21:54:00.591Z,30.72
2019-06-08T21:56:30.090Z,26.75
2019-06-08T21:59:01.047Z,30.92
2019-06-08T22:01:32.690Z,33.08
2019-06-08T22:04:02.457Z,33.83
2019-06-08T22:06:32.009Z,31.35
2019-06-08T22:09:02.821Z,34.08
2019-06-08T22:11:32.502Z,33.13
2019-06-08T22:14:03.041Z,31.85
2019-06-08T22:16:32.574Z,28.92
2019-06-08T22:19:03.258Z,27.95
2019-06-08T22:21:32.968Z,28.42
2019-06-08T22:24:03.594Z,29.80
2019-06-08T22:26:33.199Z,32.98
2019-06-08T22:29:03.728Z,36.03
2019-06-08T22:31:33.267Z,25.37
2019-06-08T22:34:04.014Z,25.95
2019-06-08T22:36:33.660Z,32.78
2019-06-08T22:39:03.832Z,34.53
2019-06-08T22:41:33.390Z,36.17
2019-06-08T22:44:03.184Z,29.25
2019-06-08T22:46:32.708Z,36.50
2019-06-08T22:49:03.689Z,34.00
2019-06-08T22:51:33.451Z,37.13
2019-06-08T22:54:04.028Z,27.95
2019-06-08T22:56:33.485Z,27.75
2019-06-08T22:59:04.604Z,27.10
2019-06-08T23:01:34.100Z,30.30
2019-06-08T23:04:04.336Z,30.02
2019-06-08T23:06:34.744Z,25.70
2019-06-08T23:09:08.109Z,32.40
2019-06-08T23:11:37.570Z,32.00
2019-06-08T23:14:12.865Z,27.20
2019-06-08T23:16:38.336Z,34.67
2019-06-08T23:19:08.094Z,33.98
2019-06-08T23:21:38.219Z,28.62
2019-06-08T23:24:08.633Z,29.02
2019-06-08T23:26:38.199Z,24.77
2019-06-08T23:29:09.547Z,27.50
2019-06-08T23:31:38.936Z,27.00
2019-06-08T23:34:11.113Z,23.92
2019-06-08T23:36:51.790Z,27.62
2019-06-08T23:39:10.782Z,32.28
2019-06-08T23:41:40.301Z,32.38
2019-06-08T23:44:09.781Z,26.68
2019-06-08T23:46:39.257Z,25.75
2019-06-08T23:49:09.080Z,29.98
2019-06-08T23:51:38.564Z,33.05
2019-06-08T23:54:10.534Z,31.10
2019-06-08T23:56:39.317Z,29.40
2019-06-08T23:59:09.423Z,40.23
